Allensville, Pennsylvania
Current Conditions -  °F | °C
As of 5:35 AM on Wednesday 22 Oct 2014 (Local Time) from KUNV Reporting Station
Overcast Overcast  
Wind Chill: 45°   Ceiling: 7500
Heat Index: 49°   Visibility: 10mi
Dew Point: 45°   Wind: 9mph
Humidity: 86%   Direction: 10°N
Pressure: 29.99"   Gusts: NA
Location:  40.54°N, 77.82°W
Report Text: KUNV 220935Z AUTO 01008KT 10SM SCT017 OVC075 10/07 A2999 RMK AO2 LTG DSNT SE T00950072
Loading
Personal Weather Stations






























Interactive Weather Map
Tropical Storm Tracking
New forecast layout! Learn more

10-Day Weather Forecast

Advertisements
Track Severe Weather on mobile